Time;durP1;ratioP1;P1;durP2;ratioP2;P2;SDS_P1;SDS_P2;PMS_P1;PMS_P2;Temp;Humidity;BMP_temperature;BMP_pressure;BME280_temperature;BME280_humidity;BME280_pressure;Samples;Min_cycle;Max_cycle;Signal;HPM_P1;HPM_P2
2023/05/04 00:02:26;;;;;;;4.22;1.80;;;9.70;99.90;;;8.15;100.00;98113.13;4968246;28;20042;-77
2023/05/04 00:04:54;;;;;;;4.22;1.65;;;9.70;99.90;;;8.38;100.00;98108.22;4968100;28;20113;-77
2023/05/04 00:07:24;;;;;;;5.15;2.35;;;9.60;99.90;;;8.27;100.00;98106.81;4959785;28;20050;-77
2023/05/04 00:09:51;;;;;;;5.05;1.35;;;9.50;99.90;;;8.20;100.00;98103.53;4977077;28;20125;-77
2023/05/04 00:12:18;;;;;;;5.93;2.00;;;9.50;99.90;;;8.13;100.00;98105.41;4950770;28;20048;-77
2023/05/04 00:14:45;;;;;;;5.03;1.73;;;9.50;99.90;;;8.12;100.00;98093.38;4968671;28;20050;-78
2023/05/04 00:17:13;;;;;;;3.13;1.52;;;9.40;99.90;;;8.10;100.00;98092.56;4966898;28;20051;-77
2023/05/04 00:19:43;;;;;;;5.38;2.33;;;9.30;99.90;;;7.70;100.00;98097.81;4950577;28;20049;-77
2023/05/04 00:22:11;;;;;;;3.38;1.70;;;9.30;99.90;;;7.75;100.00;98094.25;4952339;28;20054;-77
2023/05/04 00:24:38;;;;;;;5.75;1.92;;;9.20;99.90;;;7.67;100.00;98098.75;4966837;28;20117;-78
2023/05/04 00:27:05;;;;;;;4.70;2.47;;;9.10;99.90;;;7.60;100.00;98096.34;4969550;28;20046;-77
2023/05/04 00:29:32;;;;;;;5.38;1.90;;;9.10;99.90;;;7.38;100.00;98101.94;4966819;28;20063;-77
2023/05/04 00:31:59;;;;;;;4.28;1.92;;;9.00;99.90;;;7.58;100.00;98100.69;4969610;28;20062;-78
2023/05/04 00:34:26;;;;;;;3.33;1.85;;;8.90;99.90;;;7.56;100.00;98095.53;4951411;28;20166;-77
2023/05/04 00:36:54;;;;;;;7.00;2.33;;;8.90;99.90;;;7.48;100.00;98090.56;4964359;28;20073;-77
2023/05/04 00:39:22;;;;;;;4.00;2.33;;;8.90;99.90;;;7.50;100.00;98090.50;4969165;28;20058;-77
2023/05/04 00:41:49;;;;;;;4.38;2.38;;;8.90;99.90;;;7.39;100.00;98095.91;4972507;28;20047;-78
2023/05/04 00:44:34;;;;;;;5.68;2.65;;;8.80;99.90;;;7.43;100.00;98089.78;4975684;28;20057;-78
2023/05/04 00:47:02;;;;;;;5.30;2.90;;;8.70;99.90;;;7.40;100.00;98091.59;4950756;28;20051;-77
2023/05/04 00:49:30;;;;;;;6.78;2.15;;;8.70;99.90;;;7.41;100.00;98093.28;4967421;28;20066;-78
2023/05/04 00:52:00;;;;;;;4.78;2.40;;;8.70;99.90;;;7.33;100.00;98096.03;4976489;28;20627;-77
2023/05/04 00:54:27;;;;;;;5.22;2.83;;;8.70;99.90;;;7.15;100.00;98088.69;4962260;28;20493;-77
2023/05/04 00:56:57;;;;;;;6.10;2.60;;;8.60;99.90;;;7.27;100.00;98084.09;4950062;28;20138;-77
2023/05/04 00:59:24;;;;;;;6.97;2.47;;;8.60;99.90;;;7.14;100.00;98087.84;4965651;28;20091;-77
2023/05/04 01:01:52;;;;;;;6.05;2.00;;;8.50;99.90;;;7.11;100.00;98085.31;4964183;28;20053;-77
2023/05/04 01:04:19;;;;;;;4.03;2.03;;;8.50;99.90;;;6.84;100.00;98089.28;4961979;28;20078;-77
2023/05/04 01:07:14;;;;;;;5.95;2.15;;;8.50;99.90;;;7.10;100.00;98078.47;4969178;28;20109;-77
2023/05/04 01:09:54;;;;;;;2.78;1.73;;;8.40;99.90;;;7.02;100.00;98080.34;4961399;28;20065;-77
2023/05/04 01:12:31;;;;;;;9.00;2.28;;;8.40;99.90;;;6.69;100.00;98077.53;4960664;28;20058;-78
2023/05/04 01:14:59;;;;;;;3.97;2.60;;;8.30;99.90;;;6.58;100.00;98079.47;4976748;28;20121;-77
2023/05/04 01:17:26;;;;;;;4.28;2.25;;;8.20;99.90;;;6.79;100.00;98078.22;4962030;28;20708;-77
2023/05/04 01:19:54;;;;;;;5.65;2.17;;;8.10;99.90;;;6.65;100.00;98076.75;4964219;28;20078;-77
2023/05/04 01:22:21;;;;;;;5.22;2.30;;;8.10;99.90;;;6.73;100.00;98078.31;4966724;28;20077;-77
2023/05/04 01:24:52;;;;;;;3.72;1.98;;;8.10;99.90;;;6.79;100.00;98081.63;4961656;28;20077;-77
2023/05/04 01:27:23;;;;;;;5.93;2.38;;;8.10;99.90;;;6.98;100.00;98074.41;4963968;28;20470;-78
2023/05/04 01:30:05;;;;;;;5.70;2.13;;;8.20;99.90;;;6.65;100.00;98079.31;4963563;28;20187;-77
2023/05/04 01:32:36;;;;;;;3.95;1.90;;;8.10;99.90;;;6.54;100.00;98078.66;4946434;28;20169;-77
2023/05/04 01:35:04;;;;;;;4.78;2.10;;;8.10;99.90;;;6.41;100.00;98072.03;4966192;28;20055;-76
2023/05/04 01:37:31;;;;;;;3.72;2.08;;;8.00;99.90;;;6.59;100.00;98074.28;4968470;28;20078;-77
2023/05/04 01:39:58;;;;;;;4.43;1.95;;;7.90;99.90;;;6.51;100.00;98075.31;4957602;28;20066;-77
2023/05/04 01:42:25;;;;;;;5.45;2.08;;;7.90;99.90;;;6.69;100.00;98067.22;4964496;28;20427;-76
2023/05/04 01:44:52;;;;;;;4.68;2.20;;;8.00;99.90;;;6.57;100.00;98070.88;4965596;28;20134;-76
2023/05/04 01:47:19;;;;;;;4.82;2.40;;;7.90;99.90;;;6.45;100.00;98071.97;4962020;28;20380;-76
2023/05/04 01:49:46;;;;;;;6.28;2.75;;;7.90;99.90;;;6.55;100.00;98064.06;4961379;28;20069;-77
2023/05/04 01:52:13;;;;;;;5.88;2.35;;;7.80;99.90;;;6.52;100.00;98062.38;4968280;28;20051;-76
2023/05/04 01:54:40;;;;;;;4.55;2.30;;;7.90;99.90;;;6.58;100.00;98066.56;4964509;28;20053;-76
2023/05/04 01:57:07;;;;;;;6.07;2.33;;;7.90;99.90;;;6.61;100.00;98066.50;4968201;28;20051;-76
2023/05/04 01:59:35;;;;;;;7.13;2.15;;;7.90;99.90;;;6.70;100.00;98056.00;4967173;28;20156;-76
2023/05/04 02:02:02;;;;;;;3.28;1.77;;;7.90;99.90;;;6.45;100.00;98058.19;4949467;28;20102;-76
2023/05/04 02:04:30;;;;;;;4.72;1.92;;;7.90;99.90;;;6.76;100.00;98053.31;4968927;28;20057;-76
2023/05/04 02:06:57;;;;;;;5.53;1.88;;;7.90;99.90;;;6.87;100.00;98043.63;4961758;28;20077;-76
2023/05/04 02:09:23;;;;;;;5.68;2.30;;;8.00;99.90;;;6.97;100.00;98044.28;4965166;28;20130;-76
2023/05/04 02:11:51;;;;;;;5.38;2.33;;;8.10;99.90;;;7.50;100.00;98034.56;4967154;28;20070;-76
2023/05/04 02:14:19;;;;;;;5.22;2.28;;;8.20;99.90;;;7.56;100.00;98030.13;4979226;28;20055;-76
2023/05/04 02:16:47;;;;;;;7.05;1.92;;;8.40;99.90;;;7.66;100.00;98023.84;4933985;28;20134;-76
2023/05/04 02:19:14;;;;;;;5.32;1.92;;;8.60;99.90;;;7.78;100.00;98017.50;4960463;28;20058;-76
2023/05/04 02:21:41;;;;;;;4.38;1.83;;;8.70;99.90;;;8.04;100.00;98012.56;4965861;28;20046;-76
2023/05/04 02:24:08;;;;;;;4.00;1.73;;;8.90;99.90;;;8.10;100.00;98016.75;4963841;28;20074;-76
2023/05/04 02:26:36;;;;;;;5.30;1.90;;;9.00;99.90;;;8.11;100.00;98008.94;4948598;28;20051;-77
2023/05/04 02:29:04;;;;;;;8.02;1.80;;;9.10;99.90;;;8.14;100.00;98013.16;4961042;28;20051;-77
2023/05/04 02:31:32;;;;;;;5.90;1.83;;;9.30;99.90;;;8.27;100.00;98004.19;4950011;28;20137;-76
2023/05/04 02:34:02;;;;;;;4.93;1.70;;;9.30;99.90;;;8.28;100.00;98011.09;4972396;28;20579;-76
2023/05/04 02:36:32;;;;;;;4.35;1.60;;;9.30;99.90;;;8.15;100.00;98002.78;4968615;28;20061;-76
2023/05/04 02:39:00;;;;;;;4.53;1.70;;;9.40;99.90;;;8.18;100.00;98007.88;4970485;28;20046;-76
2023/05/04 02:41:27;;;;;;;5.43;1.85;;;9.30;99.90;;;8.04;100.00;98007.38;4969021;28;20150;-76
2023/05/04 02:43:54;;;;;;;4.45;1.75;;;9.30;99.90;;;8.17;100.00;98005.34;4966260;28;20058;-76
2023/05/04 02:46:25;;;;;;;3.83;1.45;;;9.30;99.90;;;8.30;100.00;98009.31;4968702;28;20054;-77
2023/05/04 02:48:53;;;;;;;3.60;1.50;;;9.30;99.90;;;8.09;100.00;98005.53;4969522;28;20055;-76
2023/05/04 02:51:20;;;;;;;3.83;1.75;;;9.30;99.90;;;7.94;100.00;98003.34;4971736;28;20054;-77
2023/05/04 02:53:47;;;;;;;3.55;1.75;;;9.30;99.90;;;7.99;100.00;98003.25;4972159;28;20053;-77
2023/05/04 02:56:17;;;;;;;5.28;1.77;;;9.20;99.90;;;7.88;100.00;97993.16;4952046;28;20138;-76
2023/05/04 02:58:44;;;;;;;5.85;1.70;;;9.10;99.90;;;7.82;100.00;97996.72;4953222;28;20054;-76
2023/05/04 03:01:12;;;;;;;3.20;1.60;;;9.10;99.90;;;7.80;100.00;97990.78;4967754;28;20582;-77
2023/05/04 03:03:40;;;;;;;5.35;2.05;;;9.00;99.90;;;7.54;100.00;97994.81;4950785;28;20108;-76
2023/05/04 03:06:07;;;;;;;4.78;1.60;;;8.90;99.90;;;7.74;100.00;97980.59;4950740;28;20050;-76
2023/05/04 03:08:35;;;;;;;8.02;1.65;;;8.90;99.90;;;7.61;100.00;97985.19;4973706;28;20047;-76
2023/05/04 03:11:02;;;;;;;3.92;1.90;;;8.80;99.90;;;7.49;100.00;97980.34;4954246;28;20055;-76
2023/05/04 03:13:29;;;;;;;6.93;1.90;;;8.80;99.90;;;7.43;100.00;97989.06;4971099;28;20133;-77
2023/05/04 03:15:56;;;;;;;5.72;2.20;;;8.80;99.90;;;7.51;100.00;97983.72;4974109;28;20050;-76
2023/05/04 03:18:23;;;;;;;5.72;1.67;;;8.70;99.90;;;7.65;100.00;97985.97;4969990;28;20051;-77
2023/05/04 03:20:52;;;;;;;4.97;2.58;;;8.70;99.90;;;7.63;100.00;97983.41;4968179;28;20791;-76
2023/05/04 03:23:19;;;;;;;3.22;1.60;;;8.80;99.90;;;7.63;100.00;97985.16;4973167;28;20056;-76
2023/05/04 03:25:47;;;;;;;4.80;1.80;;;8.80;99.90;;;7.52;100.00;97982.81;4965333;28;20130;-76
2023/05/04 03:28:14;;;;;;;5.38;1.92;;;8.90;99.90;;;7.48;100.00;97986.38;4968651;28;20051;-76
2023/05/04 03:30:42;;;;;;;3.17;1.65;;;8.80;99.90;;;7.65;100.00;97993.72;4974119;28;20055;-77
2023/05/04 03:33:09;;;;;;;4.43;1.60;;;8.80;99.90;;;7.68;100.00;97986.72;4975350;28;20089;-77
2023/05/04 03:35:36;;;;;;;4.65;1.90;;;8.80;99.90;;;7.53;100.00;97984.53;4971349;28;20503;-76
2023/05/04 03:38:05;;;;;;;4.63;1.85;;;8.80;99.90;;;7.49;100.00;97988.09;4957380;28;20134;-78
2023/05/04 03:40:33;;;;;;;4.30;2.03;;;8.80;99.90;;;7.65;100.00;97983.41;4961271;28;20522;-77
2023/05/04 03:43:00;;;;;;;3.55;1.55;;;8.80;99.90;;;7.52;100.00;97988.84;4966580;28;20054;-76
2023/05/04 03:45:28;;;;;;;5.10;1.83;;;8.80;99.90;;;7.56;100.00;97991.38;4961536;28;20086;-76
2023/05/04 03:47:55;;;;;;;4.85;2.10;;;8.80;99.90;;;7.46;100.00;97990.75;4974649;28;20077;-76
2023/05/04 03:50:22;;;;;;;3.80;2.05;;;8.70;99.90;;;7.39;100.00;97996.91;4972176;28;20478;-76
2023/05/04 03:52:50;;;;;;;7.38;2.22;;;8.70;99.90;;;7.38;100.00;98001.22;4969346;28;20212;-77
2023/05/04 03:55:18;;;;;;;3.38;1.90;;;8.60;99.90;;;7.35;100.00;97997.88;4967190;28;20055;-76
2023/05/04 03:57:45;;;;;;;3.97;2.15;;;8.60;99.90;;;7.15;100.00;98000.91;4969608;28;20046;-76
2023/05/04 04:00:12;;;;;;;6.00;2.17;;;8.50;99.90;;;7.03;100.00;98005.47;4964260;28;20042;-76
2023/05/04 04:02:40;;;;;;;6.22;2.03;;;8.50;99.90;;;6.95;100.00;98011.66;4965302;28;20051;-76
2023/05/04 04:05:08;;;;;;;4.50;2.03;;;8.30;99.90;;;6.98;100.00;98002.13;4949185;28;20046;-76
2023/05/04 04:07:35;;;;;;;5.93;2.00;;;8.20;99.90;;;6.75;100.00;98005.19;4966815;28;20058;-77
2023/05/04 04:10:03;;;;;;;6.45;2.30;;;8.20;99.90;;;6.52;100.00;98008.22;4971344;28;20060;-76
2023/05/04 04:12:30;;;;;;;4.07;2.35;;;8.00;99.90;;;6.33;100.00;98015.44;4963496;28;21364;-76
2023/05/04 04:14:57;;;;;;;5.28;2.67;;;7.90;99.90;;;6.26;100.00;98017.28;4967946;28;20583;-76
2023/05/04 04:17:24;;;;;;;5.70;2.83;;;7.70;99.90;;;6.28;100.00;98014.69;4965833;28;20051;-76
2023/05/04 04:19:51;;;;;;;5.63;2.53;;;7.70;99.90;;;6.18;100.00;98016.59;4969597;28;20068;-76
2023/05/04 04:22:18;;;;;;;4.97;2.55;;;7.60;99.90;;;6.14;100.00;98016.69;4966688;28;20136;-77
2023/05/04 04:24:46;;;;;;;4.03;2.42;;;7.50;99.90;;;6.09;100.00;98019.34;4966537;28;20147;-76
2023/05/04 04:27:13;;;;;;;4.78;2.10;;;7.40;99.90;;;5.98;100.00;98016.94;4959985;28;20649;-76
2023/05/04 04:29:41;;;;;;;4.50;2.50;;;7.40;99.90;;;5.87;100.00;98021.38;4971359;28;20096;-76
2023/05/04 04:32:13;;;;;;;3.75;2.00;;;7.30;99.90;;;5.73;100.00;98025.94;4969538;28;20425;-76
2023/05/04 04:34:40;;;;;;;4.57;2.70;;;7.20;99.90;;;5.81;100.00;98027.47;4964326;28;20625;-77
2023/05/04 04:37:08;;;;;;;5.78;2.65;;;7.20;99.90;;;5.96;100.00;98021.25;4956870;28;20313;-76
2023/05/04 04:39:37;;;;;;;8.32;3.00;;;7.10;99.90;;;6.01;100.00;98029.75;4971395;28;20052;-77
2023/05/04 04:42:04;;;;;;;5.88;2.88;;;7.10;99.90;;;6.16;100.00;98023.50;4969450;28;20114;-76
2023/05/04 04:44:32;;;;;;;5.55;2.90;;;7.20;99.90;;;6.27;100.00;98029.31;4953549;28;20050;-77
2023/05/04 04:46:59;;;;;;;5.60;2.60;;;7.30;99.90;;;6.25;100.00;98025.91;4982343;28;20059;-77
2023/05/04 04:49:27;;;;;;;3.70;2.17;;;7.40;99.90;;;6.27;100.00;98028.44;4965782;28;20080;-77
2023/05/04 04:51:54;;;;;;;4.45;2.58;;;7.40;99.90;;;6.20;100.00;98030.31;4967129;28;20426;-77
2023/05/04 04:54:21;;;;;;;6.70;2.83;;;7.50;99.90;;;6.56;100.00;98022.75;4967983;28;20515;-77
2023/05/04 04:56:49;;;;;;;4.63;2.55;;;7.50;99.90;;;6.60;100.00;98021.81;4969514;28;20507;-76
2023/05/04 04:59:16;;;;;;;6.13;2.83;;;7.60;99.90;;;6.53;100.00;98019.41;4970702;28;20138;-77
2023/05/04 05:01:43;;;;;;;6.20;2.95;;;7.70;99.90;;;6.63;100.00;98024.31;4946005;28;20134;-76
2023/05/04 05:04:10;;;;;;;3.92;2.47;;;7.70;99.90;;;6.76;100.00;98024.09;4966996;28;20562;-76
2023/05/04 05:06:37;;;;;;;6.50;3.20;;;7.80;99.90;;;6.87;100.00;98023.00;4948600;28;20057;-76
2023/05/04 05:09:04;;;;;;;6.07;3.03;;;7.80;99.90;;;7.00;100.00;98025.31;4965669;28;20051;-76
2023/05/04 05:11:32;;;;;;;5.70;2.95;;;7.90;99.90;;;7.06;100.00;98030.34;4946980;28;20499;-76
2023/05/04 05:14:00;;;;;;;6.90;2.65;;;8.10;99.90;;;7.26;100.00;98022.19;4969846;28;20127;-77
2023/05/04 05:16:27;;;;;;;5.93;3.08;;;8.20;99.90;;;7.39;100.00;98020.16;4967729;28;20467;-77
2023/05/04 05:18:55;;;;;;;6.25;2.58;;;8.30;99.90;;;7.54;100.00;98018.06;4963646;28;20054;-77
2023/05/04 05:21:22;;;;;;;3.70;2.25;;;8.40;99.90;;;7.68;100.00;98016.91;4971799;28;20055;-77
2023/05/04 05:23:52;;;;;;;4.22;2.50;;;8.50;99.90;;;7.87;100.00;98015.59;4965197;28;20134;-77
2023/05/04 05:26:20;;;;;;;7.55;3.38;;;8.60;99.90;;;8.03;100.00;98012.59;4975088;28;20137;-77
2023/05/04 05:28:47;;;;;;;5.00;3.17;;;8.80;99.90;;;8.18;100.00;98009.63;4983615;28;20050;-77
2023/05/04 05:31:14;;;;;;;6.32;2.88;;;8.90;99.90;;;8.40;100.00;98004.78;4948802;28;20051;-78
2023/05/04 05:33:41;;;;;;;5.65;2.72;;;9.10;99.90;;;8.54;100.00;98010.41;4963633;28;20062;-78
2023/05/04 05:36:08;;;;;;;5.93;2.58;;;9.30;99.90;;;8.68;100.00;98015.19;4967206;28;20054;-78
2023/05/04 05:38:36;;;;;;;5.53;2.72;;;9.40;99.90;;;8.88;100.00;98011.22;4967897;28;20057;-78
2023/05/04 05:41:03;;;;;;;6.72;3.15;;;9.50;99.90;;;8.97;100.00;98005.75;4974237;28;20439;-78
2023/05/04 05:43:32;;;;;;;4.57;2.90;;;9.70;99.90;;;9.15;100.00;97997.44;4964008;28;20050;-78
2023/05/04 05:45:59;;;;;;;6.20;3.13;;;9.90;99.90;;;9.34;100.00;98000.31;4961671;28;20057;-78
2023/05/04 05:48:26;;;;;;;5.15;3.15;;;10.00;99.90;;;9.45;100.00;98001.75;4954562;28;20179;-77
2023/05/04 05:50:54;;;;;;;7.90;3.20;;;10.10;99.90;;;9.57;100.00;97993.56;4972326;28;20051;-78
2023/05/04 05:53:21;;;;;;;6.47;3.47;;;10.20;99.90;;;9.73;100.00;98005.13;4960279;28;20051;-78
2023/05/04 05:55:48;;;;;;;6.00;3.20;;;10.40;99.90;;;9.83;100.00;98005.69;4974466;28;20058;-78
2023/05/04 05:58:15;;;;;;;13.70;3.85;;;10.50;99.90;;;9.84;100.00;98002.19;4962033;28;20055;-78
2023/05/04 06:00:42;;;;;;;7.60;2.83;;;10.60;99.90;;;9.92;100.00;98001.94;4963691;28;20060;-77
2023/05/04 06:03:10;;;;;;;7.60;3.35;;;10.80;99.90;;;10.20;100.00;98001.88;4955039;28;20420;-78
2023/05/04 06:05:37;;;;;;;6.13;3.17;;;10.80;99.90;;;10.23;100.00;98004.34;4973418;28;20108;-79
2023/05/04 06:08:05;;;;;;;6.15;3.60;;;10.90;99.90;;;10.19;100.00;98005.34;4974204;28;20082;-78
2023/05/04 06:10:33;;;;;;;7.20;3.28;;;11.00;99.90;;;10.39;100.00;98007.28;4976517;28;20050;-77
2023/05/04 06:13:03;;;;;;;6.28;4.20;;;11.10;99.90;;;10.41;100.00;98000.31;4971375;28;20504;-78
2023/05/04 06:15:30;;;;;;;6.25;4.22;;;11.20;99.90;;;10.30;100.00;98005.03;4973261;28;20062;-77
2023/05/04 06:17:57;;;;;;;6.45;3.70;;;11.20;99.90;;;10.35;100.00;97996.16;4975525;28;20054;-78
2023/05/04 06:20:25;;;;;;;7.00;3.92;;;11.20;99.90;;;10.44;100.00;97992.41;4977564;28;20086;-78
2023/05/04 06:22:52;;;;;;;7.68;4.13;;;11.30;99.90;;;10.60;100.00;97987.50;4970720;28;20046;-78
2023/05/04 06:25:19;;;;;;;8.63;3.92;;;11.40;99.90;;;10.65;100.00;97985.59;4976922;28;20057;-78
2023/05/04 06:27:46;;;;;;;8.10;4.18;;;11.50;99.90;;;10.74;100.00;97984.41;4969478;28;20058;-78
2023/05/04 06:30:14;;;;;;;9.98;4.30;;;11.60;99.90;;;10.74;100.00;97977.50;4973067;28;20058;-78
2023/05/04 06:32:41;;;;;;;8.13;4.10;;;11.50;99.90;;;10.88;100.00;97977.81;4971774;28;20042;-78
2023/05/04 06:35:09;;;;;;;6.78;3.97;;;11.60;99.90;;;11.02;100.00;97979.91;4975142;28;20188;-78
2023/05/04 06:37:36;;;;;;;7.18;4.18;;;11.80;99.90;;;11.04;100.00;97979.84;4968733;28;20062;-78
2023/05/04 06:40:04;;;;;;;10.05;3.95;;;11.90;99.90;;;11.23;100.00;97978.22;4955645;28;20125;-78
2023/05/04 06:42:32;;;;;;;7.63;4.20;;;11.90;99.90;;;11.44;100.00;97978.28;4965899;28;20093;-78
2023/05/04 06:44:59;;;;;;;10.95;4.00;;;12.10;99.90;;;11.68;100.00;97976.47;4968622;28;20078;-78
2023/05/04 06:47:26;;;;;;;7.65;3.92;;;12.30;99.90;;;11.85;100.00;97974.00;4984440;28;20059;-78
2023/05/04 06:49:53;;;;;;;7.45;3.90;;;12.50;99.90;;;11.74;100.00;97971.00;4968328;28;20056;-78
2023/05/04 06:52:20;;;;;;;7.18;4.30;;;12.60;99.90;;;11.77;100.00;97972.63;4969265;28;20050;-78
2023/05/04 06:54:50;;;;;;;9.05;4.10;;;12.60;99.90;;;11.86;100.00;97964.44;4975920;28;20061;-79
2023/05/04 06:57:17;;;;;;;6.68;3.80;;;12.70;99.90;;;11.93;100.00;97974.56;4985803;28;20066;-78
2023/05/04 06:59:45;;;;;;;9.27;4.57;;;12.80;99.90;;;12.22;100.00;97969.03;4963903;28;20563;-78
2023/05/04 07:02:12;;;;;;;5.95;3.88;;;12.90;99.90;;;12.44;100.00;97977.59;4970450;28;20046;-77
2023/05/04 07:04:39;;;;;;;7.32;4.00;;;13.00;99.90;;;12.54;100.00;97978.91;4968980;28;20139;-77
2023/05/04 07:07:06;;;;;;;8.40;3.72;;;13.20;99.90;;;12.76;100.00;97973.56;4970766;28;20068;-78
2023/05/04 07:09:33;;;;;;;7.47;4.40;;;13.30;99.90;;;12.83;100.00;97976.75;4971398;28;20061;-77
2023/05/04 07:12:00;;;;;;;8.27;4.18;;;13.50;99.90;;;13.05;100.00;97975.78;4988373;28;20145;-78
2023/05/04 07:14:27;;;;;;;7.97;3.65;;;13.60;99.90;;;13.02;100.00;97971.53;4961050;28;20070;-78
2023/05/04 07:16:54;;;;;;;8.57;3.92;;;13.70;99.90;;;13.40;100.00;97979.38;4960793;28;20126;-78
2023/05/04 07:19:21;;;;;;;7.10;4.07;;;13.90;99.90;;;13.25;100.00;97974.84;4977285;28;20077;-78
2023/05/04 07:21:48;;;;;;;8.02;3.80;;;14.00;99.90;;;13.29;100.00;97968.59;4975423;28;20051;-77
2023/05/04 07:24:15;;;;;;;9.60;4.28;;;14.10;99.90;;;13.55;100.00;97969.97;4973959;28;20046;-78
2023/05/04 07:26:43;;;;;;;6.25;3.75;;;14.10;99.90;;;13.45;100.00;97968.72;4971885;28;20063;-78
2023/05/04 07:29:10;;;;;;;7.90;4.45;;;14.20;99.90;;;13.65;100.00;97955.56;4971340;28;20454;-78
2023/05/04 07:31:37;;;;;;;5.53;3.78;;;14.30;99.90;;;13.65;100.00;97950.34;4967265;28;20232;-78
2023/05/04 07:34:04;;;;;;;6.50;4.18;;;14.40;99.90;;;13.62;100.00;97949.66;4982327;28;20126;-78
2023/05/04 07:36:34;;;;;;;7.35;3.63;;;14.40;99.90;;;13.91;100.00;97945.59;4971080;28;20505;-78
2023/05/04 07:39:01;;;;;;;7.43;4.03;;;14.50;99.90;;;13.83;100.00;97955.56;4966080;28;20047;-78
2023/05/04 07:41:29;;;;;;;8.65;3.90;;;14.60;99.90;;;13.77;100.00;97954.09;4963071;28;20047;-78
2023/05/04 07:43:56;;;;;;;8.73;3.95;;;14.60;99.90;;;14.12;100.00;97949.75;4973605;28;20057;-78
2023/05/04 07:46:23;;;;;;;8.07;3.95;;;14.80;99.90;;;14.38;100.00;97934.47;4984913;28;20046;-78
2023/05/04 07:48:51;;;;;;;8.77;3.78;;;15.00;99.90;;;14.32;100.00;97930.44;4973464;28;20053;-78
2023/05/04 07:51:18;;;;;;;8.00;3.90;;;15.20;99.90;;;14.48;100.00;97927.00;4955061;28;20050;-78
2023/05/04 07:53:46;;;;;;;7.45;3.20;;;15.20;99.90;;;14.69;100.00;97925.91;4965658;28;20085;-78
2023/05/04 07:56:13;;;;;;;8.57;3.25;;;15.30;99.90;;;14.87;100.00;97929.31;4953789;28;20503;-79
2023/05/04 07:58:40;;;;;;;6.50;2.85;;;15.50;99.90;;;14.78;100.00;97921.94;4979306;28;20047;-78
2023/05/04 08:01:08;;;;;;;7.60;3.33;;;15.70;99.90;;;14.95;100.00;97916.63;4973619;28;20046;-78
2023/05/04 08:03:35;;;;;;;8.82;3.10;;;15.70;99.90;;;15.14;100.00;97921.69;4962329;28;20066;-78
2023/05/04 08:06:02;;;;;;;6.10;3.10;;;15.70;99.90;;;15.29;100.00;97908.72;4974061;28;20050;-78
2023/05/04 08:08:29;;;;;;;6.05;3.53;;;15.90;99.90;;;15.36;100.00;97904.81;4975053;28;20588;-78
2023/05/04 08:10:56;;;;;;;7.15;3.67;;;16.10;99.90;;;15.16;100.00;97906.75;4973943;28;20416;-78
2023/05/04 08:13:39;;;;;;;6.55;3.33;;;16.20;99.90;;;15.30;100.00;97903.38;4975281;28;20066;-78
2023/05/04 08:16:09;;;;;;;6.18;2.90;;;16.20;99.90;;;15.80;100.00;97901.44;4940255;28;20054;-78
2023/05/04 08:18:37;;;;;;;4.43;2.88;;;16.20;99.90;;;15.94;100.00;97896.22;4960313;28;20069;-78
2023/05/04 08:21:05;;;;;;;7.43;3.15;;;16.40;99.90;;;16.27;100.00;97889.91;4973358;28;20046;-78
2023/05/04 08:23:32;;;;;;;7.93;3.03;;;16.50;99.90;;;16.95;100.00;97897.09;4970994;28;20047;-78
2023/05/04 08:26:03;;;;;;;5.82;2.95;;;16.80;99.90;;;17.27;100.00;97887.16;4962585;28;20230;-78
2023/05/04 08:28:38;;;;;;;3.83;2.33;;;17.10;99.90;;;18.45;100.00;97874.91;4967844;28;20578;-78
2023/05/04 08:31:06;;;;;;;7.78;2.53;;;17.50;99.90;;;18.53;100.00;97880.47;4975302;28;20050;-76
2023/05/04 08:33:33;;;;;;;6.70;2.55;;;18.00;99.90;;;18.87;100.00;97876.31;4956157;28;20050;-79
2023/05/04 08:36:03;;;;;;;4.30;2.10;;;18.50;99.90;;;19.05;100.00;97875.97;4970312;28;20059;-76
2023/05/04 08:38:30;;;;;;;6.70;2.40;;;18.80;99.90;;;19.73;100.00;97872.69;4965410;28;20139;-76
2023/05/04 08:41:03;;;;;;;5.35;2.00;;;19.50;99.90;;;19.86;100.00;97859.41;4975991;28;20056;-77
2023/05/04 08:43:35;;;;;;;3.38;1.30;;;20.30;99.90;;;20.32;100.00;97863.81;4960521;28;20142;-77
2023/05/04 08:46:05;;;;;;;5.40;2.00;;;21.00;99.90;;;19.76;100.00;97859.28;4967504;28;20047;-76
2023/05/04 08:48:33;;;;;;;3.22;1.60;;;21.30;96.80;;;20.24;100.00;97871.47;4981216;28;20061;-76
2023/05/04 08:51:03;;;;;;;2.72;1.45;;;21.50;97.90;;;20.65;100.00;97864.78;4967534;28;20165;-77
2023/05/04 08:53:34;;;;;;;3.92;1.60;;;21.90;95.70;;;20.32;100.00;97855.03;4956442;28;20058;-76
2023/05/04 08:56:08;;;;;;;2.80;1.58;;;22.40;93.90;;;20.33;100.00;97862.84;4967552;28;20077;-77
2023/05/04 08:58:36;;;;;;;2.70;1.38;;;22.40;94.00;;;21.22;100.00;97861.06;4961092;28;20057;-77
2023/05/04 09:01:06;;;;;;;2.35;1.02;;;22.60;94.20;;;21.14;100.00;97857.34;4971546;28;20047;-77
2023/05/04 09:03:34;;;;;;;2.70;1.48;;;23.10;93.30;;;22.24;100.00;97848.19;4966450;28;20070;-76
2023/05/04 09:06:02;;;;;;;1.75;1.20;;;23.70;92.60;;;22.46;100.00;97844.50;4948788;28;21072;-77
2023/05/04 09:08:30;;;;;;;2.55;1.10;;;24.20;91.30;;;21.79;90.03;97840.53;4978412;28;20427;-77
2023/05/04 09:10:58;;;;;;;2.22;1.02;;;24.30;86.90;;;22.25;97.27;97849.84;4971548;28;20220;-77
2023/05/04 09:13:26;;;;;;;4.47;1.42;;;24.40;89.10;;;22.19;88.56;97846.88;4971604;28;20055;-76
2023/05/04 09:15:57;;;;;;;2.28;1.20;;;24.60;84.10;;;21.85;89.30;97847.09;4960174;28;20071;-76
2023/05/04 09:18:43;;;;;;;5.65;1.00;;;24.50;85.10;;;22.01;89.31;97841.34;4962952;28;20138;-77
2023/05/04 09:21:11;;;;;;;3.25;1.25;;;24.70;82.00;;;21.64;83.06;97853.22;4987802;28;20542;-76
2023/05/04 09:23:48;;;;;;;1.58;1.00;;;24.40;79.00;;;22.13;82.12;97835.03;4963455;28;20510;-77
2023/05/04 09:26:30;;;;;;;1.63;0.80;;;24.10;79.10;;;22.86;77.44;97840.19;4954521;28;20051;-77
2023/05/04 09:29:13;;;;;;;2.78;0.90;;;24.00;79.00;;;23.20;81.04;97831.91;4981325;28;20054;-76
2023/05/04 09:31:51;;;;;;;1.58;0.80;;;24.40;80.00;;;22.51;83.08;97833.53;4948135;28;20059;-76
2023/05/04 09:34:22;;;;;;;1.52;0.80;;;24.70;80.30;;;22.82;78.79;97836.97;4968049;28;20054;-77
2023/05/04 09:37:06;;;;;;;1.90;0.90;;;24.60;77.10;;;23.49;76.39;97835.41;4959774;28;20426;-78
2023/05/04 09:39:33;;;;;;;2.85;0.98;;;25.10;78.20;;;23.75;72.76;97826.91;4969759;28;20521;-77
2023/05/04 09:42:00;;;;;;;1.90;0.68;;;25.30;74.00;;;23.55;70.96;97831.34;4965458;28;20061;-78
2023/05/04 09:44:27;;;;;;;3.80;0.90;;;25.30;73.90;;;23.10;67.48;97830.06;4970966;28;20371;-78
2023/05/04 09:46:58;;;;;;;1.75;0.90;;;25.30;72.00;;;23.04;66.66;97841.22;4967024;28;20059;-78
2023/05/04 09:49:33;;;;;;;2.38;0.98;;;24.50;71.20;;;23.21;67.93;97825.63;4969870;28;20060;-77
2023/05/04 09:52:01;;;;;;;1.88;0.80;;;24.00;71.90;;;22.80;66.96;97827.50;4964027;28;20063;-81
2023/05/04 09:54:33;;;;;;;3.53;0.95;;;23.20;74.40;;;22.47;71.72;97827.69;4967374;28;20527;-79
2023/05/04 09:57:10;;;;;;;;;;;23.20;74.80;;;21.31;70.57;97823.34;4970835;28;20058;-77
2023/05/04 09:59:38;;;;;;;1.80;0.82;;;23.50;73.90;;;22.28;73.19;97814.38;4968923;28;19931;-77
2023/05/04 10:02:06;;;;;;;2.00;1.00;;;23.30;75.60;;;23.25;72.82;97801.38;4959425;28;20659;-77
2023/05/04 10:04:49;;;;;;;2.38;0.90;;;24.00;76.00;;;23.64;67.08;97793.41;4958155;28;20463;-77
2023/05/04 10:07:20;;;;;;;1.20;0.80;;;24.30;72.50;;;24.19;66.87;97804.16;4961205;28;20142;-77
2023/05/04 10:09:49;;;;;;;4.60;0.80;;;25.00;73.30;;;24.16;66.96;97798.31;4972767;28;20165;-77
2023/05/04 10:12:16;;;;;;;2.47;0.75;;;25.30;72.10;;;24.83;67.14;97798.97;4970518;28;20168;-76
2023/05/04 10:14:45;;;;;;;1.73;0.73;;;25.60;73.30;;;25.46;67.42;97788.28;4954268;28;20133;-77
2023/05/04 10:17:40;;;;;;;3.95;0.80;;;26.20;72.90;;;25.73;68.38;97780.31;4968578;28;20392;-76
2023/05/04 10:20:31;;;;;;;1.63;0.68;;;26.70;75.00;;;25.28;66.06;97784.00;4966617;28;20554;-77
2023/05/04 10:23:40;;;;;;;1.50;0.75;;;26.50;72.40;;;24.05;64.95;97762.19;4970552;28;20050;-77
2023/05/04 10:26:35;;;;;;;2.08;0.90;;;26.10;69.70;;;24.86;60.78;97777.44;4967941;28;20051;-77
2023/05/04 10:29:24;;;;;;;2.10;0.60;;;24.60;69.40;;;25.10;59.72;97768.84;4964771;28;20054;-77